createdAt,value
2017-02-21T00:00:30.386Z,0
2017-02-21T00:01:30.364Z,0
2017-02-21T00:02:30.362Z,0
2017-02-21T00:03:29.956Z,0
2017-02-21T00:04:30.325Z,0
2017-02-21T00:05:30.306Z,0
2017-02-21T00:06:29.914Z,0
2017-02-21T00:07:30.305Z,0
2017-02-21T00:08:29.870Z,0
2017-02-21T00:09:30.261Z,0
2017-02-21T00:10:30.262Z,0
2017-02-21T00:11:30.235Z,0
2017-02-21T00:12:30.226Z,0
2017-02-21T00:13:30.236Z,0
2017-02-21T00:14:30.210Z,0
2017-02-21T00:15:30.195Z,0
2017-02-21T00:16:29.796Z,0
2017-02-21T00:17:30.183Z,0
2017-02-21T00:18:29.762Z,0
2017-02-21T00:19:30.147Z,0
2017-02-21T00:20:30.125Z,0
2017-02-21T00:21:29.726Z,0
2017-02-21T00:22:30.111Z,0
2017-02-21T00:23:30.092Z,0
2017-02-21T00:24:30.071Z,0
2017-02-21T00:25:30.055Z,0
2017-02-21T00:26:30.053Z,0
2017-02-21T00:27:30.053Z,0
2017-02-21T00:28:29.624Z,0
2017-02-21T00:29:30.018Z,0
2017-02-21T00:30:30.003Z,0
2017-02-21T00:31:29.995Z,0
2017-02-21T00:32:29.977Z,0
2017-02-21T00:33:29.955Z,0
2017-02-21T00:34:29.950Z,0
2017-02-21T00:35:29.538Z,0
2017-02-21T00:36:29.952Z,0
2017-02-21T00:37:29.938Z,0
2017-02-21T00:38:29.903Z,0
2017-02-21T00:39:29.893Z,0
2017-02-21T00:40:29.872Z,0
2017-02-21T00:41:29.857Z,0
2017-02-21T00:42:29.868Z,0
2017-02-21T00:43:29.862Z,0
2017-02-21T00:44:29.834Z,0
2017-02-21T00:45:29.831Z,0
2017-02-21T00:46:29.805Z,0
2017-02-21T00:47:29.788Z,0
2017-02-21T00:48:29.783Z,0
2017-02-21T00:49:29.781Z,0
2017-02-21T00:50:29.744Z,0
2017-02-21T00:51:29.741Z,0
2017-02-21T00:52:29.718Z,0
2017-02-21T00:53:29.709Z,0
2017-02-21T00:54:29.695Z,0
2017-02-21T00:55:29.692Z,0
2017-02-21T00:56:29.283Z,0
2017-02-21T00:57:29.662Z,0
2017-02-21T00:58:29.256Z,0
2017-02-21T00:59:29.643Z,0
2017-02-21T01:00:29.225Z,0
2017-02-21T01:01:29.217Z,0
2017-02-21T01:02:29.601Z,0
2017-02-21T01:03:29.594Z,0
2017-02-21T01:04:29.570Z,0
2017-02-21T01:05:29.170Z,0
2017-02-21T01:06:29.544Z,0
2017-02-21T01:07:29.560Z,0
2017-02-21T01:08:29.534Z,0
2017-02-21T01:09:29.510Z,0
2017-02-21T01:10:29.105Z,0
2017-02-21T01:11:29.487Z,0
2017-02-21T01:12:29.464Z,0
2017-02-21T01:13:29.470Z,0
2017-02-21T01:14:29.436Z,0
2017-02-21T01:15:29.430Z,0
2017-02-21T01:16:29.023Z,0
2017-02-21T01:17:29.418Z,0
2017-02-21T01:18:29.395Z,0
2017-02-21T01:19:29.378Z,0
2017-02-21T01:20:29.380Z,0
2017-02-21T01:21:29.363Z,0
2017-02-21T01:22:29.346Z,0
2017-02-21T01:23:29.335Z,0
2017-02-21T01:24:29.329Z,0
2017-02-21T01:25:29.313Z,0
2017-02-21T01:26:29.296Z,0
2017-02-21T01:27:29.282Z,0
2017-02-21T01:28:28.868Z,0
2017-02-21T01:29:29.253Z,0
2017-02-21T01:30:29.243Z,0
2017-02-21T01:31:29.229Z,0
2017-02-21T01:32:29.227Z,0
2017-02-21T01:33:29.209Z,0
2017-02-21T01:34:29.208Z,0
2017-02-21T01:35:29.184Z,0
2017-02-21T01:36:29.180Z,0
2017-02-21T01:37:29.159Z,0
2017-02-21T01:38:29.148Z,0
2017-02-21T01:39:28.743Z,0
2017-02-21T01:40:28.721Z,0
2017-02-21T01:41:29.110Z,0
2017-02-21T01:42:29.110Z,0
2017-02-21T01:43:29.076Z,0
2017-02-21T01:44:29.091Z,0
2017-02-21T01:45:29.063Z,0
2017-02-21T01:46:29.058Z,0
2017-02-21T01:47:28.635Z,0
2017-02-21T01:48:29.029Z,0
2017-02-21T01:49:28.623Z,0
2017-02-21T01:50:28.988Z,0
2017-02-21T01:51:28.578Z,0
2017-02-21T01:52:28.984Z,0
2017-02-21T01:53:28.966Z,0
2017-02-21T01:54:28.943Z,0
2017-02-21T01:55:29.185Z,0
2017-02-21T01:56:28.518Z,0
2017-02-21T01:57:28.507Z,0
2017-02-21T01:58:28.509Z,0
2017-02-21T01:59:28.879Z,0
2017-02-21T02:00:28.869Z,0
2017-02-21T02:01:28.867Z,0
2017-02-21T02:02:28.458Z,0
2017-02-21T02:03:28.436Z,0
2017-02-21T02:04:28.820Z,0
2017-02-21T02:05:28.404Z,0
2017-02-21T02:06:28.420Z,0
2017-02-21T02:07:28.773Z,0
2017-02-21T02:08:28.771Z,0
2017-02-21T02:09:28.389Z,0
2017-02-21T02:10:28.754Z,0
2017-02-21T02:11:28.341Z,0
2017-02-21T02:12:28.331Z,0
2017-02-21T02:13:28.341Z,0
2017-02-21T02:14:28.296Z,0
2017-02-21T02:15:28.685Z,0
2017-02-21T02:16:28.684Z,0
2017-02-21T02:17:28.673Z,0
2017-02-21T02:18:28.647Z,0
2017-02-21T02:19:28.642Z,0
2017-02-21T02:20:28.632Z,0
2017-02-21T02:21:28.610Z,0
2017-02-21T02:22:28.599Z,0
2017-02-21T02:23:28.597Z,0
2017-02-21T02:24:28.576Z,0
2017-02-21T02:25:28.561Z,0
2017-02-21T02:26:28.558Z,0
2017-02-21T02:27:28.139Z,0
2017-02-21T02:28:28.542Z,0
2017-02-21T02:29:28.517Z,0
2017-02-21T02:30:28.504Z,0
2017-02-21T02:31:28.499Z,0
2017-02-21T02:32:28.484Z,0
2017-02-21T02:33:28.476Z,0
2017-02-21T02:34:28.062Z,0
2017-02-21T02:35:28.055Z,0
2017-02-21T02:36:28.416Z,0
2017-02-21T02:37:28.432Z,0
2017-02-21T02:38:28.400Z,0
2017-02-21T02:39:27.983Z,0
2017-02-21T02:40:28.397Z,0
2017-02-21T02:41:28.001Z,0
2017-02-21T02:42:28.377Z,0
2017-02-21T02:43:28.376Z,0
2017-02-21T02:44:28.338Z,0
2017-02-21T02:45:28.325Z,0
2017-02-21T02:46:27.908Z,0
2017-02-21T02:47:28.299Z,0
2017-02-21T02:48:28.287Z,0
2017-02-21T02:49:28.279Z,0
2017-02-21T02:50:28.267Z,0
2017-02-21T02:51:28.269Z,0
2017-02-21T02:52:28.233Z,0
2017-02-21T02:53:28.239Z,0
2017-02-21T02:54:27.803Z,0
2017-02-21T02:55:28.202Z,0
2017-02-21T02:56:28.185Z,0
2017-02-21T02:57:28.177Z,0
2017-02-21T02:58:28.150Z,0
2017-02-21T02:59:28.152Z,0
2017-02-21T03:00:28.146Z,0
2017-02-21T03:01:28.121Z,0
2017-02-21T03:02:28.110Z,0
2017-02-21T03:03:28.102Z,0
2017-02-21T03:04:27.690Z,0
2017-02-21T03:05:28.084Z,0
2017-02-21T03:06:27.658Z,0
2017-02-21T03:07:28.050Z,0
2017-02-21T03:08:28.044Z,0
2017-02-21T03:09:27.634Z,0
2017-02-21T03:10:27.626Z,0
2017-02-21T03:11:28.004Z,0
2017-02-21T03:12:27.601Z,0
2017-02-21T03:13:27.196Z,0
2017-02-21T03:14:28.013Z,0
2017-02-21T03:15:27.959Z,0
2017-02-21T03:16:27.144Z,0
2017-02-21T03:17:27.923Z,0
2017-02-21T03:18:27.517Z,0
2017-02-21T03:19:27.499Z,0
2017-02-21T03:20:27.506Z,0
2017-02-21T03:21:27.884Z,0
2017-02-21T03:22:27.111Z,0
2017-02-21T03:23:27.867Z,0
2017-02-21T03:24:27.844Z,0
2017-02-21T03:25:27.834Z,0
2017-02-21T03:26:27.813Z,0
2017-02-21T03:27:27.806Z,0
2017-02-21T03:28:27.806Z,0
2017-02-21T03:29:27.775Z,0
2017-02-21T03:30:27.767Z,0
2017-02-21T03:31:27.772Z,0
2017-02-21T03:32:27.757Z,0
2017-02-21T03:33:27.739Z,0
2017-02-21T03:34:27.716Z,0
2017-02-21T03:35:27.702Z,0
2017-02-21T03:36:27.681Z,0
2017-02-21T03:37:27.684Z,0
2017-02-21T03:38:27.667Z,0
2017-02-21T03:39:27.689Z,0
2017-02-21T03:40:27.639Z,0
2017-02-21T03:41:27.630Z,0
2017-02-21T03:42:27.640Z,0
2017-02-21T03:43:27.607Z,0
2017-02-21T03:44:27.592Z,0
2017-02-21T03:45:27.584Z,0
2017-02-21T03:46:27.562Z,0
2017-02-21T03:47:27.560Z,0
2017-02-21T03:48:27.549Z,0
2017-02-21T03:49:27.541Z,0
2017-02-21T03:50:27.522Z,0
2017-02-21T03:51:27.514Z,0
2017-02-21T03:52:27.206Z,0
2017-02-21T03:53:27.494Z,0
2017-02-21T03:54:27.475Z,0
2017-02-21T03:55:27.457Z,0
2017-02-21T03:56:27.452Z,0
2017-02-21T03:57:27.447Z,0
2017-02-21T03:58:27.419Z,0
2017-02-21T03:59:27.011Z,0
2017-02-21T04:00:27.404Z,0
2017-02-21T04:01:27.386Z,0
2017-02-21T04:02:27.373Z,0
2017-02-21T04:03:27.357Z,0
2017-02-21T04:04:27.355Z,0
2017-02-21T04:05:27.364Z,0
2017-02-21T04:06:27.341Z,0
2017-02-21T04:07:26.930Z,0
2017-02-21T04:08:27.305Z,0
2017-02-21T04:09:27.296Z,0
2017-02-21T04:10:27.269Z,0
2017-02-21T04:11:27.268Z,0
2017-02-21T04:12:26.856Z,0
2017-02-21T04:13:27.248Z,0
2017-02-21T04:14:27.237Z,0
2017-02-21T04:15:27.224Z,0
2017-02-21T04:16:27.208Z,0
2017-02-21T04:17:27.192Z,0
2017-02-21T04:18:27.186Z,0
2017-02-21T04:19:27.173Z,0
2017-02-21T04:20:27.165Z,0
2017-02-21T04:21:27.140Z,0
2017-02-21T04:22:27.161Z,0
2017-02-21T04:23:27.131Z,0
2017-02-21T04:24:27.139Z,0
2017-02-21T04:25:27.096Z,0
2017-02-21T04:26:27.084Z,0
2017-02-21T04:27:27.062Z,0
2017-02-21T04:28:27.065Z,0
2017-02-21T04:29:27.035Z,0
2017-02-21T04:30:27.038Z,0
2017-02-21T04:31:27.048Z,0
2017-02-21T04:32:27.006Z,0
2017-02-21T04:33:27.002Z,0
2017-02-21T04:34:26.991Z,0
2017-02-21T04:35:26.961Z,0
2017-02-21T04:36:26.975Z,0
2017-02-21T04:37:26.941Z,0
2017-02-21T04:38:26.534Z,0
2017-02-21T04:39:26.941Z,0
2017-02-21T04:40:26.921Z,0
2017-02-21T04:41:26.908Z,0
2017-02-21T04:42:26.882Z,0
2017-02-21T04:43:26.878Z,0
2017-02-21T04:44:26.851Z,0
2017-02-21T04:45:26.856Z,0
2017-02-21T04:46:26.838Z,0
2017-02-21T04:47:26.817Z,0
2017-02-21T04:48:26.833Z,0
2017-02-21T04:49:26.800Z,0
2017-02-21T04:50:26.783Z,0
2017-02-21T04:51:26.786Z,0
2017-02-21T04:52:26.752Z,0
2017-02-21T04:53:26.371Z,0
2017-02-21T04:54:26.750Z,0
2017-02-21T04:55:26.727Z,0
2017-02-21T04:56:26.715Z,0
2017-02-21T04:57:26.715Z,0
2017-02-21T04:58:26.697Z,0
2017-02-21T04:59:26.277Z,0
2017-02-21T05:00:26.669Z,0
2017-02-21T05:01:26.650Z,0
2017-02-21T05:02:26.641Z,0
2017-02-21T05:03:26.630Z,0
2017-02-21T05:04:26.607Z,0
2017-02-21T05:05:26.211Z,0
2017-02-21T05:06:26.604Z,0
2017-02-21T05:07:26.190Z,0
2017-02-21T05:08:26.159Z,0
2017-02-21T05:09:26.148Z,0
2017-02-21T05:10:26.553Z,0
2017-02-21T05:11:26.128Z,0
2017-02-21T05:12:26.119Z,0
2017-02-21T05:13:26.100Z,0
2017-02-21T05:14:26.498Z,0
2017-02-21T05:15:26.806Z,0
2017-02-21T05:16:26.474Z,0
2017-02-21T05:17:26.056Z,0
2017-02-21T05:18:26.041Z,0
2017-02-21T05:19:26.445Z,0
2017-02-21T05:20:26.417Z,0
2017-02-21T05:21:26.010Z,0
2017-02-21T05:22:25.989Z,0
2017-02-21T05:23:26.386Z,0
2017-02-21T05:24:25.969Z,0
2017-02-21T05:25:26.363Z,0
2017-02-21T05:26:25.962Z,0
2017-02-21T05:27:26.352Z,0
2017-02-21T05:28:26.307Z,0
2017-02-21T05:29:26.297Z,0
2017-02-21T05:30:26.280Z,0
2017-02-21T05:31:25.882Z,0
2017-02-21T05:32:26.282Z,0
2017-02-21T05:33:26.269Z,0
2017-02-21T05:34:26.243Z,0
2017-02-21T05:35:25.837Z,0
2017-02-21T05:36:26.224Z,0
2017-02-21T05:37:26.203Z,0
2017-02-21T05:38:25.805Z,0
2017-02-21T05:39:26.196Z,0
2017-02-21T05:40:26.166Z,0
2017-02-21T05:41:26.150Z,0
2017-02-21T05:42:26.142Z,0
2017-02-21T05:43:26.125Z,0
2017-02-21T05:44:26.115Z,0
2017-02-21T05:45:26.109Z,0
2017-02-21T05:46:26.095Z,0
2017-02-21T05:47:26.091Z,0
2017-02-21T05:48:26.068Z,0
2017-02-21T05:49:26.069Z,0
2017-02-21T05:50:26.037Z,0
2017-02-21T05:51:26.046Z,0
2017-02-21T05:52:26.025Z,0
2017-02-21T05:53:25.628Z,4
2017-02-21T05:54:25.605Z,4
2017-02-21T05:55:25.983Z,0
2017-02-21T05:56:25.979Z,4
2017-02-21T05:57:25.958Z,4
2017-02-21T05:58:25.935Z,8
2017-02-21T05:59:25.952Z,8
2017-02-21T06:00:25.928Z,8
2017-02-21T06:01:25.902Z,8
2017-02-21T06:02:25.895Z,12
2017-02-21T06:03:25.892Z,16
2017-02-21T06:04:25.889Z,12
2017-02-21T06:05:25.467Z,16
2017-02-21T06:06:25.859Z,20
2017-02-21T06:07:25.833Z,16
2017-02-21T06:08:25.835Z,20
2017-02-21T06:09:25.807Z,20
2017-02-21T06:10:25.808Z,20
2017-02-21T06:11:25.779Z,24
2017-02-21T06:12:25.778Z,24
2017-02-21T06:13:25.361Z,24
2017-02-21T06:14:25.746Z,24
2017-02-21T06:15:25.333Z,28
2017-02-21T06:16:25.732Z,36
2017-02-21T06:17:25.737Z,40
2017-02-21T06:18:25.710Z,44
2017-02-21T06:19:25.690Z,56
2017-02-21T06:20:25.673Z,64
2017-02-21T06:21:25.664Z,64
2017-02-21T06:22:25.667Z,60
2017-02-21T06:23:25.638Z,68
2017-02-21T06:24:25.626Z,84
2017-02-21T06:25:25.633Z,96
2017-02-21T06:26:25.205Z,88
2017-02-21T06:27:25.194Z,84
2017-02-21T06:28:25.188Z,92
2017-02-21T06:29:25.177Z,112
2017-02-21T06:30:25.164Z,120
2017-02-21T06:31:25.144Z,96
2017-02-21T06:32:25.124Z,96
2017-02-21T06:33:25.128Z,104
2017-02-21T06:34:25.110Z,100
2017-02-21T06:35:25.494Z,120
2017-02-21T06:36:25.477Z,124
2017-02-21T06:37:25.470Z,144
2017-02-21T06:38:25.462Z,140
2017-02-21T06:39:25.458Z,144
2017-02-21T06:40:25.439Z,136
2017-02-21T06:41:25.422Z,168
2017-02-21T06:42:25.409Z,152
2017-02-21T06:43:24.994Z,180
2017-02-21T06:44:24.997Z,176
2017-02-21T06:45:25.368Z,216
2017-02-21T06:46:25.369Z,220
2017-02-21T06:47:25.367Z,220
2017-02-21T06:48:25.356Z,240
2017-02-21T06:49:25.334Z,224
2017-02-21T06:50:25.320Z,248
2017-02-21T06:51:24.914Z,328
2017-02-21T06:52:25.292Z,424
2017-02-21T06:53:24.898Z,372
2017-02-21T06:54:25.260Z,372
2017-02-21T06:55:25.258Z,468
2017-02-21T06:56:25.238Z,432
2017-02-21T06:57:25.239Z,396
2017-02-21T06:58:25.215Z,348
2017-02-21T06:59:25.212Z,412
2017-02-21T07:00:25.202Z,464
2017-02-21T07:01:25.220Z,468
2017-02-21T07:02:25.175Z,564
2017-02-21T07:03:25.173Z,560
2017-02-21T07:04:25.151Z,556
2017-02-21T07:05:25.135Z,572
2017-02-21T07:06:25.135Z,564
2017-02-21T07:07:25.113Z,536
2017-02-21T07:08:25.128Z,524
2017-02-21T07:09:25.130Z,484
2017-02-21T07:10:25.071Z,472
2017-02-21T07:11:25.056Z,576
2017-02-21T07:12:25.071Z,648
2017-02-21T07:13:25.042Z,584
2017-02-21T07:14:25.026Z,592
2017-02-21T07:15:25.015Z,852
2017-02-21T07:16:25.015Z,1040
2017-02-21T07:17:24.989Z,1100
2017-02-21T07:18:24.987Z,972
2017-02-21T07:19:24.988Z,984
2017-02-21T07:20:25.010Z,940
2017-02-21T07:21:24.946Z,1196
2017-02-21T07:22:24.936Z,1404
2017-02-21T07:23:24.911Z,1300
2017-02-21T07:24:24.923Z,1108
2017-02-21T07:25:24.944Z,940
2017-02-21T07:26:24.876Z,840
2017-02-21T07:27:24.868Z,852
2017-02-21T07:28:24.873Z,752
2017-02-21T07:29:24.852Z,824
2017-02-21T07:30:24.848Z,804
2017-02-21T07:31:24.836Z,704
2017-02-21T07:32:24.813Z,624
2017-02-21T07:33:24.823Z,820
2017-02-21T07:34:24.785Z,760
2017-02-21T07:35:24.773Z,868
2017-02-21T07:36:24.769Z,996
2017-02-21T07:37:24.768Z,980
2017-02-21T07:38:24.750Z,960
2017-02-21T07:39:24.726Z,1920
2017-02-21T07:40:24.740Z,1320
2017-02-21T07:41:24.704Z,1084
2017-02-21T07:42:24.688Z,1396
2017-02-21T07:43:24.686Z,1892
2017-02-21T07:44:24.670Z,2024
2017-02-21T07:45:24.660Z,2096
2017-02-21T07:46:24.658Z,2036
2017-02-21T07:47:24.629Z,1856
2017-02-21T07:48:24.619Z,1824
2017-02-21T07:49:24.602Z,1960
2017-02-21T07:50:24.608Z,1912
2017-02-21T07:51:24.206Z,2208
2017-02-21T07:52:24.578Z,2404
2017-02-21T07:53:24.576Z,2184
2017-02-21T07:54:24.547Z,1916
2017-02-21T07:55:24.556Z,2052
2017-02-21T07:56:24.128Z,2288
2017-02-21T07:57:24.659Z,3052
2017-02-21T07:58:24.537Z,3256
2017-02-21T07:59:24.492Z,3268
2017-02-21T08:00:24.481Z,2136
2017-02-21T08:01:24.480Z,1916
2017-02-21T08:02:24.485Z,2264
2017-02-21T08:03:24.463Z,2036
2017-02-21T08:04:24.452Z,1944
2017-02-21T08:05:24.426Z,2504
2017-02-21T08:06:24.416Z,2956
2017-02-21T08:07:24.408Z,2820
2017-02-21T08:08:24.399Z,3036
2017-02-21T08:09:24.376Z,3388
2017-02-21T08:10:24.373Z,3048
2017-02-21T08:11:24.355Z,3140
2017-02-21T08:12:24.356Z,3032
2017-02-21T08:13:24.356Z,3132
2017-02-21T08:14:24.320Z,3528
2017-02-21T08:15:24.315Z,3124
2017-02-21T08:16:24.316Z,3468
2017-02-21T08:17:24.306Z,3332
2017-02-21T08:18:24.285Z,2912
2017-02-21T08:19:24.290Z,3080
2017-02-21T08:20:24.272Z,3464
2017-02-21T08:21:24.243Z,4388
2017-02-21T08:22:24.254Z,5216
2017-02-21T08:23:24.219Z,5096
2017-02-21T08:24:23.815Z,4468
2017-02-21T08:25:24.244Z,4220
2017-02-21T08:26:24.199Z,4472
2017-02-21T08:27:24.178Z,4436
2017-02-21T08:28:24.183Z,4224
2017-02-21T08:29:24.179Z,3308
2017-02-21T08:30:24.146Z,3164
2017-02-21T08:31:24.149Z,3696
2017-02-21T08:32:24.132Z,3056
2017-02-21T08:33:24.119Z,2332
2017-02-21T08:34:24.121Z,2264
2017-02-21T08:35:24.101Z,1944
2017-02-21T08:36:24.075Z,1568
2017-02-21T08:37:24.065Z,1484
2017-02-21T08:38:24.095Z,1600
2017-02-21T08:39:24.048Z,1700
2017-02-21T08:40:24.049Z,1720
2017-02-21T08:41:24.033Z,1444
2017-02-21T08:42:24.019Z,1592
2017-02-21T08:43:23.620Z,1380
2017-02-21T08:44:23.990Z,1368
2017-02-21T08:45:23.996Z,1728
2017-02-21T08:46:23.999Z,1780
2017-02-21T08:47:23.966Z,1816
2017-02-21T08:48:23.964Z,1748
2017-02-21T08:49:23.938Z,2104
2017-02-21T08:50:23.930Z,2316
2017-02-21T08:51:23.923Z,1896
2017-02-21T08:52:23.908Z,1876
2017-02-21T08:53:23.894Z,2304
2017-02-21T08:54:23.906Z,2552
2017-02-21T08:55:23.883Z,2620
2017-02-21T08:56:23.944Z,2808
2017-02-21T08:57:23.850Z,2528
2017-02-21T08:58:23.842Z,2692
2017-02-21T08:59:23.827Z,3268
2017-02-21T09:00:23.817Z,4204
2017-02-21T09:01:23.401Z,4068
2017-02-21T09:02:23.815Z,5000
2017-02-21T09:03:23.796Z,4972
2017-02-21T09:04:23.791Z,4836
2017-02-21T09:05:23.769Z,5080
2017-02-21T09:06:23.773Z,6128
2017-02-21T09:07:23.745Z,6868
2017-02-21T09:08:23.728Z,4000
2017-02-21T09:09:23.732Z,2876
2017-02-21T09:10:23.724Z,3928
2017-02-21T09:11:23.715Z,4000
2017-02-21T09:12:23.708Z,3376
2017-02-21T09:13:22.882Z,2180
2017-02-21T09:14:23.672Z,2316
2017-02-21T09:15:23.654Z,2856
2017-02-21T09:16:23.673Z,2092
2017-02-21T09:17:23.646Z,1216
2017-02-21T09:18:23.256Z,1004
2017-02-21T09:19:23.637Z,1048
2017-02-21T09:20:23.604Z,1420
2017-02-21T09:21:23.589Z,1160
2017-02-21T09:22:23.184Z,916
2017-02-21T09:23:23.570Z,1192
2017-02-21T09:24:23.592Z,1244
2017-02-21T09:25:23.567Z,1372
2017-02-21T09:26:23.534Z,1896
2017-02-21T09:27:23.558Z,2996
2017-02-21T09:28:23.529Z,5036
2017-02-21T09:29:23.513Z,4740
2017-02-21T09:30:23.496Z,3004
2017-02-21T09:31:23.487Z,3472
2017-02-21T09:32:23.487Z,6596
2017-02-21T09:33:23.476Z,7076
2017-02-21T09:34:23.451Z,5808
2017-02-21T09:35:23.454Z,4640
2017-02-21T09:36:23.443Z,4948
2017-02-21T09:37:23.420Z,3872
2017-02-21T09:38:23.427Z,4252
2017-02-21T09:39:23.417Z,6344
2017-02-21T09:40:23.392Z,5488
2017-02-21T09:41:23.374Z,4864
2017-02-21T09:42:23.397Z,3664
2017-02-21T09:43:23.378Z,4012
2017-02-21T09:44:23.344Z,4536
2017-02-21T09:45:22.940Z,3400
2017-02-21T09:46:22.945Z,4136
2017-02-21T09:47:23.323Z,3036
2017-02-21T09:48:22.903Z,4296
2017-02-21T09:49:23.308Z,3272
2017-02-21T09:50:23.289Z,3720
2017-02-21T09:51:23.310Z,3612
2017-02-21T09:52:23.276Z,2528
2017-02-21T09:53:23.268Z,2336
2017-02-21T09:54:23.250Z,4060
2017-02-21T09:55:22.860Z,3788
2017-02-21T09:56:22.822Z,2048
2017-02-21T09:57:22.813Z,1912
2017-02-21T09:58:23.204Z,3324
2017-02-21T09:59:22.387Z,2224
2017-02-21T10:00:23.211Z,3072
2017-02-21T10:01:23.179Z,4276
2017-02-21T10:02:23.163Z,5600
2017-02-21T10:03:23.155Z,8012
2017-02-21T10:04:23.146Z,8548
2017-02-21T10:05:23.138Z,8128
2017-02-21T10:06:23.111Z,8136
2017-02-21T10:07:23.107Z,7496
2017-02-21T10:08:22.718Z,7568
2017-02-21T10:09:23.076Z,9076
2017-02-21T10:10:23.084Z,9816
2017-02-21T10:11:23.071Z,10648
2017-02-21T10:12:23.053Z,9796
2017-02-21T10:13:22.637Z,11412
2017-02-21T10:14:23.044Z,11364
2017-02-21T10:15:23.035Z,12744
2017-02-21T10:16:23.023Z,12260
2017-02-21T10:17:23.016Z,12304
2017-02-21T10:18:22.992Z,11788
2017-02-21T10:19:22.971Z,9724
2017-02-21T10:20:22.965Z,7380
2017-02-21T10:21:22.954Z,6980
2017-02-21T10:22:22.942Z,6284
2017-02-21T10:23:22.933Z,7208
2017-02-21T10:24:22.946Z,7064
2017-02-21T10:25:22.929Z,8948
2017-02-21T10:26:22.915Z,7956
2017-02-21T10:27:22.902Z,7212
2017-02-21T10:28:22.485Z,6120
2017-02-21T10:29:22.886Z,7544
2017-02-21T10:30:22.882Z,9052
2017-02-21T10:31:22.857Z,9536
2017-02-21T10:32:22.880Z,8924
2017-02-21T10:33:22.437Z,8908
2017-02-21T10:34:22.845Z,7048
2017-02-21T10:35:22.828Z,5320
2017-02-21T10:36:22.418Z,5084
2017-02-21T10:37:22.797Z,4728
2017-02-21T10:38:22.795Z,3524
2017-02-21T10:39:22.774Z,3328
2017-02-21T10:40:22.372Z,3244
2017-02-21T10:41:22.413Z,3076
2017-02-21T10:42:22.354Z,3460
2017-02-21T10:43:22.764Z,4516
2017-02-21T10:44:22.733Z,4664
2017-02-21T10:45:22.743Z,5832
2017-02-21T10:46:22.711Z,5788
2017-02-21T10:47:21.897Z,5504
2017-02-21T10:48:22.681Z,5340
2017-02-21T10:49:22.683Z,3940
2017-02-21T10:50:22.679Z,2456
2017-02-21T10:51:22.671Z,2532
2017-02-21T10:52:22.646Z,2916
2017-02-21T10:53:22.643Z,3344
2017-02-21T10:54:22.622Z,3104
2017-02-21T10:55:22.625Z,3252
2017-02-21T10:56:22.608Z,2900
2017-02-21T10:57:22.604Z,2508
2017-02-21T10:58:22.582Z,3096
2017-02-21T10:59:22.592Z,4532
2017-02-21T11:00:22.577Z,5088
2017-02-21T11:01:22.570Z,4684
2017-02-21T11:02:22.547Z,4664
2017-02-21T11:03:22.537Z,5408
2017-02-21T11:04:22.546Z,6092
2017-02-21T11:05:22.511Z,6416
2017-02-21T11:06:22.490Z,6040
2017-02-21T11:07:22.497Z,6420
2017-02-21T11:08:22.484Z,5484
2017-02-21T11:09:22.463Z,5464
2017-02-21T11:10:22.467Z,7608
2017-02-21T11:11:22.455Z,8564
2017-02-21T11:12:22.440Z,8560
2017-02-21T11:13:22.426Z,8324
2017-02-21T11:14:22.423Z,7568
2017-02-21T11:15:22.412Z,6536
2017-02-21T11:16:22.389Z,6800
2017-02-21T11:17:22.401Z,7956
2017-02-21T11:18:22.369Z,8696
2017-02-21T11:19:22.354Z,9104
2017-02-21T11:20:22.355Z,9488
2017-02-21T11:21:22.353Z,9984
2017-02-21T11:22:22.334Z,9944
2017-02-21T11:23:22.327Z,9064
2017-02-21T11:24:22.303Z,8356
2017-02-21T11:25:22.322Z,7868
2017-02-21T11:26:21.892Z,6396
2017-02-21T11:27:22.281Z,6852
2017-02-21T11:28:22.278Z,7888
2017-02-21T11:29:22.269Z,8412
2017-02-21T11:30:22.240Z,8348
2017-02-21T11:31:22.247Z,7144
2017-02-21T11:32:21.831Z,6320
2017-02-21T11:33:21.818Z,6204
2017-02-21T11:34:22.218Z,6884
2017-02-21T11:35:22.219Z,7264
2017-02-21T11:36:22.200Z,7580
2017-02-21T11:37:22.275Z,7468
2017-02-21T11:38:22.163Z,7264
2017-02-21T11:39:22.171Z,7308
2017-02-21T11:40:22.146Z,6528
2017-02-21T11:41:21.733Z,5724
2017-02-21T11:42:21.730Z,5832
2017-02-21T11:43:22.111Z,6148
2017-02-21T11:44:22.119Z,4992
2017-02-21T11:45:22.114Z,4344
2017-02-21T11:46:22.098Z,4900
2017-02-21T11:47:21.689Z,6308
2017-02-21T11:48:22.057Z,7092
2017-02-21T11:49:22.053Z,7472
2017-02-21T11:50:22.055Z,7724
2017-02-21T11:51:22.048Z,8180
2017-02-21T11:52:22.013Z,8356
2017-02-21T11:53:22.010Z,8948
2017-02-21T11:54:22.008Z,8908
2017-02-21T11:55:22.009Z,8424
2017-02-21T11:56:21.987Z,7344
2017-02-21T11:57:21.972Z,5360
2017-02-21T11:58:21.576Z,4228
2017-02-21T11:59:21.985Z,4380
2017-02-21T12:00:21.938Z,4748
2017-02-21T12:01:21.918Z,4264
2017-02-21T12:02:21.949Z,4684
2017-02-21T12:03:21.904Z,6064
2017-02-21T12:04:21.910Z,6056
2017-02-21T12:05:21.883Z,5864
2017-02-21T12:06:21.878Z,5056
2017-02-21T12:07:21.868Z,5372
2017-02-21T12:08:21.849Z,5496
2017-02-21T12:09:21.839Z,4964
2017-02-21T12:10:21.837Z,4300
2017-02-21T12:11:21.829Z,5268
2017-02-21T12:12:21.816Z,5624
2017-02-21T12:13:21.821Z,5244
2017-02-21T12:14:21.800Z,4500
2017-02-21T12:15:21.794Z,3624
2017-02-21T12:16:21.761Z,3252
2017-02-21T12:17:21.778Z,3156
2017-02-21T12:18:21.763Z,2816
2017-02-21T12:19:21.747Z,2452
2017-02-21T12:20:21.734Z,2124
2017-02-21T12:21:21.733Z,2224
2017-02-21T12:22:21.711Z,3076
2017-02-21T12:23:21.708Z,4248
2017-02-21T12:24:21.690Z,4428
2017-02-21T12:25:21.303Z,3412
2017-02-21T12:26:20.876Z,2732
2017-02-21T12:27:21.665Z,2788
2017-02-21T12:28:21.243Z,2856
2017-02-21T12:29:21.661Z,2708
2017-02-21T12:30:21.634Z,2872
2017-02-21T12:31:21.238Z,3064
2017-02-21T12:32:21.624Z,3124
2017-02-21T12:33:21.202Z,3044
2017-02-21T12:34:21.582Z,3088
2017-02-21T12:35:21.571Z,2972
2017-02-21T12:36:21.572Z,2672
2017-02-21T12:37:21.164Z,2324
2017-02-21T12:38:21.535Z,2328
2017-02-21T12:39:21.531Z,2436
2017-02-21T12:40:21.513Z,2712
2017-02-21T12:41:21.508Z,3256
2017-02-21T12:42:21.500Z,3484
2017-02-21T12:43:21.525Z,3672
2017-02-21T12:44:21.466Z,3748
2017-02-21T12:45:21.469Z,3356
2017-02-21T12:46:21.457Z,2660
2017-02-21T12:47:21.441Z,2160
2017-02-21T12:48:21.429Z,2076
2017-02-21T12:49:20.621Z,2408
2017-02-21T12:50:21.406Z,3200
2017-02-21T12:51:21.406Z,3212
2017-02-21T12:52:21.393Z,3116
2017-02-21T12:53:20.985Z,2888
2017-02-21T12:54:21.380Z,2664
2017-02-21T12:55:21.362Z,2632
2017-02-21T12:56:21.340Z,2924
2017-02-21T12:57:20.563Z,2708
2017-02-21T12:58:21.316Z,2208
2017-02-21T12:59:21.365Z,2288
2017-02-21T13:00:21.307Z,2300
2017-02-21T13:01:21.291Z,2084
2017-02-21T13:02:21.290Z,2092
2017-02-21T13:03:21.306Z,2336
2017-02-21T13:04:20.850Z,2644
2017-02-21T13:05:20.868Z,2804
2017-02-21T13:06:20.844Z,3260
2017-02-21T13:07:21.219Z,4328
2017-02-21T13:08:21.210Z,5412
2017-02-21T13:09:21.211Z,6360
2017-02-21T13:10:21.188Z,6836
2017-02-21T13:11:21.171Z,6872
2017-02-21T13:12:20.765Z,6952
2017-02-21T13:13:21.151Z,6636
2017-02-21T13:14:21.140Z,6484
2017-02-21T13:15:21.123Z,6436
2017-02-21T13:16:21.136Z,5876
2017-02-21T13:17:20.728Z,5928
2017-02-21T13:18:20.695Z,6428
2017-02-21T13:19:20.689Z,6816
2017-02-21T13:20:21.089Z,6868
2017-02-21T13:21:21.072Z,7152
2017-02-21T13:22:21.092Z,7060
2017-02-21T13:23:21.051Z,6892
2017-02-21T13:24:21.028Z,6828
2017-02-21T13:25:20.619Z,6396
2017-02-21T13:26:20.658Z,6104
2017-02-21T13:27:21.009Z,5944
2017-02-21T13:28:20.607Z,5876
2017-02-21T13:29:20.981Z,6052
2017-02-21T13:30:21.010Z,6052
2017-02-21T13:31:20.968Z,6424
2017-02-21T13:32:20.944Z,6844
2017-02-21T13:33:20.951Z,6296
2017-02-21T13:34:20.939Z,6368
2017-02-21T13:35:20.912Z,6076
2017-02-21T13:36:20.900Z,5972
2017-02-21T13:37:20.891Z,6560
2017-02-21T13:38:20.498Z,6720
2017-02-21T13:39:20.487Z,6048
2017-02-21T13:40:20.894Z,5424
2017-02-21T13:41:20.455Z,5592
2017-02-21T13:42:20.862Z,5692
2017-02-21T13:43:20.828Z,5784
2017-02-21T13:44:20.823Z,6132
2017-02-21T13:45:20.418Z,6480
2017-02-21T13:46:20.807Z,5936
2017-02-21T13:47:20.797Z,6020
2017-02-21T13:48:20.778Z,6124
2017-02-21T13:49:20.793Z,6176
2017-02-21T13:50:20.763Z,6212
2017-02-21T13:51:20.342Z,6020
2017-02-21T13:52:20.744Z,5828
2017-02-21T13:53:20.325Z,5972
2017-02-21T13:54:20.314Z,5432
2017-02-21T13:55:20.704Z,4556
2017-02-21T13:56:20.699Z,4560
2017-02-21T13:57:20.692Z,5028
2017-02-21T13:58:20.680Z,5436